sensor_id;sensor_type;location;lat;lon;timestamp;P1;durP1;ratioP1;P2;durP2;ratioP2
77248;SDS011;66280;45.124;20.718;2024-03-02T00:00:52;21.33;;;10.57;;
77248;SDS011;66280;45.124;20.718;2024-03-02T00:10:57;15.93;;;9.23;;
77248;SDS011;66280;45.124;20.718;2024-03-02T00:21:00;17.57;;;9.93;;
77248;SDS011;66280;45.124;20.718;2024-03-02T00:31:11;16.23;;;8.17;;
77248;SDS011;66280;45.124;20.718;2024-03-02T00:41:25;27.17;;;12.25;;
77248;SDS011;66280;45.124;20.718;2024-03-02T00:51:37;24.60;;;11.20;;
77248;SDS011;66280;45.124;20.718;2024-03-02T01:01:38;14.70;;;8.53;;
77248;SDS011;66280;45.124;20.718;2024-03-02T01:11:40;14.90;;;7.70;;
77248;SDS011;66280;45.124;20.718;2024-03-02T01:21:42;12.03;;;6.33;;
77248;SDS011;66280;45.124;20.718;2024-03-02T01:31:54;9.38;;;5.55;;
77248;SDS011;66280;45.124;20.718;2024-03-02T01:41:56;16.17;;;6.93;;
77248;SDS011;66280;45.124;20.718;2024-03-02T01:51:57;8.70;;;6.20;;
77248;SDS011;66280;45.124;20.718;2024-03-02T02:01:59;10.90;;;7.50;;
77248;SDS011;66280;45.124;20.718;2024-03-02T02:12:01;8.50;;;5.00;;
77248;SDS011;66280;45.124;20.718;2024-03-02T02:22:03;9.65;;;6.05;;
77248;SDS011;66280;45.124;20.718;2024-03-02T02:32:05;11.53;;;6.53;;
77248;SDS011;66280;45.124;20.718;2024-03-02T02:42:06;9.33;;;5.57;;
77248;SDS011;66280;45.124;20.718;2024-03-02T02:52:08;5.90;;;4.00;;
77248;SDS011;66280;45.124;20.718;2024-03-02T03:02:09;10.33;;;5.30;;
77248;SDS011;66280;45.124;20.718;2024-03-02T03:12:11;5.50;;;4.07;;
77248;SDS011;66280;45.124;20.718;2024-03-02T03:22:12;5.47;;;4.23;;
77248;SDS011;66280;45.124;20.718;2024-03-02T03:32:14;6.23;;;4.10;;
77248;SDS011;66280;45.124;20.718;2024-03-02T03:42:15;7.30;;;4.20;;
77248;SDS011;66280;45.124;20.718;2024-03-02T03:52:17;7.37;;;3.60;;
77248;SDS011;66280;45.124;20.718;2024-03-02T04:02:18;5.25;;;3.15;;
77248;SDS011;66280;45.124;20.718;2024-03-02T04:12:20;4.67;;;3.03;;
77248;SDS011;66280;45.124;20.718;2024-03-02T04:22:21;5.20;;;3.20;;
77248;SDS011;66280;45.124;20.718;2024-03-02T04:32:23;6.70;;;4.23;;
77248;SDS011;66280;45.124;20.718;2024-03-02T04:42:24;3.00;;;2.57;;
77248;SDS011;66280;45.124;20.718;2024-03-02T04:52:26;5.03;;;3.15;;
77248;SDS011;66280;45.124;20.718;2024-03-02T05:02:27;4.83;;;3.43;;
77248;SDS011;66280;45.124;20.718;2024-03-02T05:12:28;7.70;;;4.77;;
77248;SDS011;66280;45.124;20.718;2024-03-02T05:22:56;3.60;;;3.17;;
77248;SDS011;66280;45.124;20.718;2024-03-02T05:32:57;8.10;;;3.80;;
77248;SDS011;66280;45.124;20.718;2024-03-02T05:42:59;7.75;;;3.50;;
77248;SDS011;66280;45.124;20.718;2024-03-02T05:53:00;5.53;;;3.67;;
77248;SDS011;66280;45.124;20.718;2024-03-02T06:03:02;7.93;;;4.90;;
77248;SDS011;66280;45.124;20.718;2024-03-02T06:13:03;6.30;;;4.05;;
77248;SDS011;66280;45.124;20.718;2024-03-02T06:23:05;5.67;;;3.73;;
77248;SDS011;66280;45.124;20.718;2024-03-02T06:33:06;9.75;;;4.93;;
77248;SDS011;66280;45.124;20.718;2024-03-02T06:43:08;15.53;;;7.20;;
77248;SDS011;66280;45.124;20.718;2024-03-02T06:53:09;10.30;;;5.40;;
77248;SDS011;66280;45.124;20.718;2024-03-02T07:03:11;6.47;;;3.67;;
77248;SDS011;66280;45.124;20.718;2024-03-02T07:13:13;8.13;;;4.40;;
77248;SDS011;66280;45.124;20.718;2024-03-02T07:23:14;9.70;;;5.60;;
77248;SDS011;66280;45.124;20.718;2024-03-02T07:33:16;8.10;;;4.57;;
77248;SDS011;66280;45.124;20.718;2024-03-02T07:43:18;7.90;;;4.53;;
77248;SDS011;66280;45.124;20.718;2024-03-02T07:53:20;7.60;;;4.67;;
77248;SDS011;66280;45.124;20.718;2024-03-02T08:03:21;6.40;;;3.20;;
77248;SDS011;66280;45.124;20.718;2024-03-02T08:13:23;8.45;;;4.35;;
77248;SDS011;66280;45.124;20.718;2024-03-02T08:23:24;8.67;;;4.93;;
77248;SDS011;66280;45.124;20.718;2024-03-02T08:33:26;8.13;;;5.23;;
77248;SDS011;66280;45.124;20.718;2024-03-02T08:43:27;19.37;;;10.87;;
77248;SDS011;66280;45.124;20.718;2024-03-02T08:53:29;33.57;;;13.87;;
77248;SDS011;66280;45.124;20.718;2024-03-02T09:03:30;29.20;;;15.48;;
77248;SDS011;66280;45.124;20.718;2024-03-02T09:13:34;48.30;;;22.27;;
77248;SDS011;66280;45.124;20.718;2024-03-02T09:23:35;18.43;;;8.93;;
77248;SDS011;66280;45.124;20.718;2024-03-02T09:33:37;9.87;;;5.37;;
77248;SDS011;66280;45.124;20.718;2024-03-02T09:43:40;21.77;;;11.20;;
77248;SDS011;66280;45.124;20.718;2024-03-02T09:53:41;8.85;;;5.15;;
77248;SDS011;66280;45.124;20.718;2024-03-02T10:03:44;10.97;;;6.23;;
77248;SDS011;66280;45.124;20.718;2024-03-02T10:13:46;22.03;;;11.90;;
77248;SDS011;66280;45.124;20.718;2024-03-02T10:23:49;9.77;;;6.00;;
77248;SDS011;66280;45.124;20.718;2024-03-02T10:33:51;6.77;;;4.37;;
77248;SDS011;66280;45.124;20.718;2024-03-02T10:43:52;10.88;;;6.07;;
77248;SDS011;66280;45.124;20.718;2024-03-02T10:54:00;11.03;;;6.53;;
77248;SDS011;66280;45.124;20.718;2024-03-02T11:04:02;5.33;;;4.47;;
77248;SDS011;66280;45.124;20.718;2024-03-02T11:14:07;17.20;;;8.27;;
77248;SDS011;66280;45.124;20.718;2024-03-02T11:34:34;4.38;;;3.55;;
77248;SDS011;66280;45.124;20.718;2024-03-02T11:44:39;3.70;;;2.67;;
77248;SDS011;66280;45.124;20.718;2024-03-02T11:54:43;24.33;;;12.20;;
77248;SDS011;66280;45.124;20.718;2024-03-02T12:04:49;15.33;;;8.30;;
77248;SDS011;66280;45.124;20.718;2024-03-02T12:14:51;8.93;;;5.83;;
77248;SDS011;66280;45.124;20.718;2024-03-02T12:24:54;35.05;;;11.95;;
77248;SDS011;66280;45.124;20.718;2024-03-02T12:34:55;24.07;;;12.07;;
77248;SDS011;66280;45.124;20.718;2024-03-02T12:44:57;44.70;;;19.00;;
77248;SDS011;66280;45.124;20.718;2024-03-02T12:55:00;10.40;;;6.30;;
77248;SDS011;66280;45.124;20.718;2024-03-02T13:05:04;22.00;;;10.23;;
77248;SDS011;66280;45.124;20.718;2024-03-02T13:15:08;16.40;;;9.02;;
77248;SDS011;66280;45.124;20.718;2024-03-02T13:25:09;15.40;;;8.97;;
77248;SDS011;66280;45.124;20.718;2024-03-02T13:35:13;11.83;;;6.73;;
77248;SDS011;66280;45.124;20.718;2024-03-02T13:45:15;22.10;;;10.60;;
77248;SDS011;66280;45.124;20.718;2024-03-02T13:55:16;29.13;;;12.50;;
77248;SDS011;66280;45.124;20.718;2024-03-02T14:05:18;17.90;;;10.05;;
77248;SDS011;66280;45.124;20.718;2024-03-02T14:15:20;17.00;;;9.33;;
77248;SDS011;66280;45.124;20.718;2024-03-02T14:25:22;18.17;;;7.67;;
77248;SDS011;66280;45.124;20.718;2024-03-02T14:35:23;7.20;;;4.33;;
77248;SDS011;66280;45.124;20.718;2024-03-02T14:45:25;48.93;;;15.60;;
77248;SDS011;66280;45.124;20.718;2024-03-02T14:55:27;14.05;;;5.95;;
77248;SDS011;66280;45.124;20.718;2024-03-02T15:05:28;22.30;;;7.67;;
77248;SDS011;66280;45.124;20.718;2024-03-02T15:15:30;35.23;;;18.90;;
77248;SDS011;66280;45.124;20.718;2024-03-02T15:25:31;14.90;;;6.93;;
77248;SDS011;66280;45.124;20.718;2024-03-02T15:35:32;18.63;;;8.07;;
77248;SDS011;66280;45.124;20.718;2024-03-02T15:45:34;30.35;;;11.75;;
77248;SDS011;66280;45.124;20.718;2024-03-02T15:55:35;14.37;;;7.50;;
77248;SDS011;66280;45.124;20.718;2024-03-02T16:05:37;49.97;;;19.23;;
77248;SDS011;66280;45.124;20.718;2024-03-02T16:15:38;33.40;;;15.73;;
77248;SDS011;66280;45.124;20.718;2024-03-02T16:25:40;43.53;;;15.93;;
77248;SDS011;66280;45.124;20.718;2024-03-02T16:35:42;36.67;;;15.60;;
77248;SDS011;66280;45.124;20.718;2024-03-02T16:45:46;16.23;;;7.70;;
77248;SDS011;66280;45.124;20.718;2024-03-02T16:55:48;32.93;;;12.63;;
77248;SDS011;66280;45.124;20.718;2024-03-02T17:05:49;26.67;;;12.73;;
77248;SDS011;66280;45.124;20.718;2024-03-02T17:15:50;31.50;;;10.83;;
77248;SDS011;66280;45.124;20.718;2024-03-02T17:25:52;99.65;;;37.80;;
77248;SDS011;66280;45.124;20.718;2024-03-02T17:35:53;65.43;;;21.63;;
77248;SDS011;66280;45.124;20.718;2024-03-02T17:45:55;24.73;;;10.90;;
77248;SDS011;66280;45.124;20.718;2024-03-02T17:55:56;39.43;;;16.27;;
77248;SDS011;66280;45.124;20.718;2024-03-02T18:05:58;55.00;;;22.17;;
77248;SDS011;66280;45.124;20.718;2024-03-02T18:16:02;37.72;;;16.25;;
77248;SDS011;66280;45.124;20.718;2024-03-02T18:26:03;39.60;;;18.53;;
77248;SDS011;66280;45.124;20.718;2024-03-02T18:36:05;52.60;;;19.40;;
77248;SDS011;66280;45.124;20.718;2024-03-02T18:46:07;62.67;;;22.57;;
77248;SDS011;66280;45.124;20.718;2024-03-02T18:56:10;31.43;;;13.97;;
77248;SDS011;66280;45.124;20.718;2024-03-02T19:06:15;32.13;;;15.05;;
77248;SDS011;66280;45.124;20.718;2024-03-02T19:16:17;21.43;;;9.90;;
77248;SDS011;66280;45.124;20.718;2024-03-02T19:26:18;20.97;;;10.30;;
77248;SDS011;66280;45.124;20.718;2024-03-02T19:36:21;24.83;;;9.90;;
77248;SDS011;66280;45.124;20.718;2024-03-02T19:46:22;31.67;;;15.00;;
77248;SDS011;66280;45.124;20.718;2024-03-02T19:56:24;39.22;;;17.23;;
77248;SDS011;66280;45.124;20.718;2024-03-02T20:06:25;45.17;;;20.10;;
77248;SDS011;66280;45.124;20.718;2024-03-02T20:16:26;19.80;;;10.60;;
77248;SDS011;66280;45.124;20.718;2024-03-02T20:26:28;25.80;;;11.43;;
77248;SDS011;66280;45.124;20.718;2024-03-02T20:36:29;13.73;;;6.47;;
77248;SDS011;66280;45.124;20.718;2024-03-02T20:46:31;17.95;;;7.30;;
77248;SDS011;66280;45.124;20.718;2024-03-02T20:56:32;8.90;;;5.33;;
77248;SDS011;66280;45.124;20.718;2024-03-02T21:06:41;11.37;;;5.77;;
77248;SDS011;66280;45.124;20.718;2024-03-02T21:16:43;9.97;;;4.50;;
77248;SDS011;66280;45.124;20.718;2024-03-02T21:26:45;7.20;;;4.10;;
77248;SDS011;66280;45.124;20.718;2024-03-02T21:36:47;9.85;;;5.90;;
77248;SDS011;66280;45.124;20.718;2024-03-02T21:46:48;12.13;;;6.40;;
77248;SDS011;66280;45.124;20.718;2024-03-02T21:56:50;14.97;;;6.97;;
77248;SDS011;66280;45.124;20.718;2024-03-02T22:06:51;7.80;;;4.60;;
77248;SDS011;66280;45.124;20.718;2024-03-02T22:16:54;16.27;;;4.83;;
77248;SDS011;66280;45.124;20.718;2024-03-02T22:26:55;9.95;;;4.38;;
77248;SDS011;66280;45.124;20.718;2024-03-02T22:36:57;9.77;;;4.70;;
77248;SDS011;66280;45.124;20.718;2024-03-02T22:46:59;12.93;;;6.37;;
77248;SDS011;66280;45.124;20.718;2024-03-02T22:57:00;15.83;;;7.40;;
77248;SDS011;66280;45.124;20.718;2024-03-02T23:07:02;13.47;;;6.33;;
77248;SDS011;66280;45.124;20.718;2024-03-02T23:17:04;16.63;;;8.00;;
77248;SDS011;66280;45.124;20.718;2024-03-02T23:27:05;8.57;;;3.80;;
77248;SDS011;66280;45.124;20.718;2024-03-02T23:37:07;12.83;;;6.47;;
77248;SDS011;66280;45.124;20.718;2024-03-02T23:47:08;10.87;;;5.83;;
77248;SDS011;66280;45.124;20.718;2024-03-02T23:57:10;11.83;;;6.50;;
